sensor_id;sensor_type;location;lat;lon;timestamp;P1;durP1;ratioP1;P2;durP2;ratioP2
54641;SDS011;40536;53.194;5.728;2023-11-22T00:00:43;171.55;;;163.50;;
54641;SDS011;40536;53.194;5.728;2023-11-22T00:03:09;198.68;;;189.73;;
54641;SDS011;40536;53.194;5.728;2023-11-22T00:05:34;206.20;;;196.88;;
54641;SDS011;40536;53.194;5.728;2023-11-22T00:08:01;213.70;;;204.13;;
54641;SDS011;40536;53.194;5.728;2023-11-22T00:10:26;209.65;;;200.32;;
54641;SDS011;40536;53.194;5.728;2023-11-22T00:12:52;190.75;;;182.07;;
54641;SDS011;40536;53.194;5.728;2023-11-22T00:15:18;188.10;;;179.45;;
54641;SDS011;40536;53.194;5.728;2023-11-22T00:17:44;204.95;;;195.50;;
54641;SDS011;40536;53.194;5.728;2023-11-22T00:20:11;185.35;;;176.68;;
54641;SDS011;40536;53.194;5.728;2023-11-22T00:22:36;180.18;;;171.48;;
54641;SDS011;40536;53.194;5.728;2023-11-22T00:25:02;186.43;;;177.75;;
54641;SDS011;40536;53.194;5.728;2023-11-22T00:27:29;213.40;;;203.43;;
54641;SDS011;40536;53.194;5.728;2023-11-22T00:29:55;201.52;;;192.27;;
54641;SDS011;40536;53.194;5.728;2023-11-22T00:32:21;198.00;;;188.80;;
54641;SDS011;40536;53.194;5.728;2023-11-22T00:34:48;212.30;;;202.45;;
54641;SDS011;40536;53.194;5.728;2023-11-22T00:37:14;196.48;;;187.25;;
54641;SDS011;40536;53.194;5.728;2023-11-22T00:39:40;206.73;;;197.30;;
54641;SDS011;40536;53.194;5.728;2023-11-22T00:42:06;175.13;;;166.98;;
54641;SDS011;40536;53.194;5.728;2023-11-22T00:44:32;173.68;;;165.70;;
54641;SDS011;40536;53.194;5.728;2023-11-22T00:46:58;203.35;;;193.85;;
54641;SDS011;40536;53.194;5.728;2023-11-22T00:49:25;177.80;;;169.48;;
54641;SDS011;40536;53.194;5.728;2023-11-22T00:51:50;196.18;;;186.90;;
54641;SDS011;40536;53.194;5.728;2023-11-22T00:54:17;220.27;;;210.23;;
54641;SDS011;40536;53.194;5.728;2023-11-22T00:56:45;194.45;;;185.60;;
54641;SDS011;40536;53.194;5.728;2023-11-22T00:59:11;181.07;;;172.35;;
54641;SDS011;40536;53.194;5.728;2023-11-22T01:01:36;211.88;;;202.15;;
54641;SDS011;40536;53.194;5.728;2023-11-22T01:04:02;190.90;;;181.85;;
54641;SDS011;40536;53.194;5.728;2023-11-22T01:06:28;157.73;;;150.45;;
54641;SDS011;40536;53.194;5.728;2023-11-22T01:08:54;135.98;;;129.38;;
54641;SDS011;40536;53.194;5.728;2023-11-22T01:11:19;139.25;;;132.40;;
54641;SDS011;40536;53.194;5.728;2023-11-22T01:13:46;129.77;;;123.35;;
54641;SDS011;40536;53.194;5.728;2023-11-22T01:16:11;126.72;;;120.70;;
54641;SDS011;40536;53.194;5.728;2023-11-22T01:18:41;131.20;;;124.57;;
54641;SDS011;40536;53.194;5.728;2023-11-22T01:21:07;135.50;;;128.80;;
54641;SDS011;40536;53.194;5.728;2023-11-22T01:23:33;137.77;;;131.07;;
54641;SDS011;40536;53.194;5.728;2023-11-22T01:25:59;144.95;;;137.95;;
54641;SDS011;40536;53.194;5.728;2023-11-22T01:28:25;158.23;;;150.38;;
54641;SDS011;40536;53.194;5.728;2023-11-22T01:30:52;188.40;;;179.43;;
54641;SDS011;40536;53.194;5.728;2023-11-22T01:33:22;179.45;;;170.82;;
54641;SDS011;40536;53.194;5.728;2023-11-22T01:35:48;198.50;;;188.93;;
54641;SDS011;40536;53.194;5.728;2023-11-22T01:38:15;206.15;;;196.35;;
54641;SDS011;40536;53.194;5.728;2023-11-22T03:10:14;141.02;;;134.13;;
54641;SDS011;40536;53.194;5.728;2023-11-22T03:12:43;119.15;;;112.65;;
54641;SDS011;40536;53.194;5.728;2023-11-22T03:15:09;143.00;;;135.95;;
54641;SDS011;40536;53.194;5.728;2023-11-22T03:17:35;172.68;;;164.27;;
54641;SDS011;40536;53.194;5.728;2023-11-22T03:20:03;187.48;;;178.57;;
54641;SDS011;40536;53.194;5.728;2023-11-22T03:22:36;150.07;;;142.65;;
54641;SDS011;40536;53.194;5.728;2023-11-22T03:25:02;152.43;;;144.77;;
54641;SDS011;40536;53.194;5.728;2023-11-22T03:27:29;143.82;;;136.50;;
54641;SDS011;40536;53.194;5.728;2023-11-22T03:29:54;207.23;;;197.73;;
54641;SDS011;40536;53.194;5.728;2023-11-22T03:32:20;189.45;;;180.65;;
54641;SDS011;40536;53.194;5.728;2023-11-22T03:34:46;210.02;;;200.35;;
54641;SDS011;40536;53.194;5.728;2023-11-22T03:37:12;170.63;;;162.48;;
54641;SDS011;40536;53.194;5.728;2023-11-22T03:39:38;135.82;;;129.15;;
54641;SDS011;40536;53.194;5.728;2023-11-22T03:42:03;139.38;;;132.73;;
54641;SDS011;40536;53.194;5.728;2023-11-22T03:44:29;101.70;;;96.55;;
54641;SDS011;40536;53.194;5.728;2023-11-22T03:46:55;94.20;;;88.88;;
54641;SDS011;40536;53.194;5.728;2023-11-22T03:49:21;111.55;;;106.22;;
54641;SDS011;40536;53.194;5.728;2023-11-22T03:51:46;88.88;;;83.85;;
54641;SDS011;40536;53.194;5.728;2023-11-22T03:54:15;93.15;;;88.03;;
54641;SDS011;40536;53.194;5.728;2023-11-22T03:56:41;92.13;;;86.85;;
54641;SDS011;40536;53.194;5.728;2023-11-22T03:59:06;101.68;;;95.97;;
54641;SDS011;40536;53.194;5.728;2023-11-22T04:01:32;152.52;;;144.70;;
54641;SDS011;40536;53.194;5.728;2023-11-22T04:03:58;190.43;;;180.75;;
54641;SDS011;40536;53.194;5.728;2023-11-22T04:06:23;239.90;;;228.50;;
54641;SDS011;40536;53.194;5.728;2023-11-22T04:08:49;183.05;;;173.82;;
54641;SDS011;40536;53.194;5.728;2023-11-22T04:11:15;140.00;;;132.52;;
54641;SDS011;40536;53.194;5.728;2023-11-22T04:13:43;134.30;;;127.22;;
54641;SDS011;40536;53.194;5.728;2023-11-22T04:16:09;145.38;;;137.35;;
54641;SDS011;40536;53.194;5.728;2023-11-22T04:18:40;142.10;;;134.23;;
54641;SDS011;40536;53.194;5.728;2023-11-22T04:21:06;165.57;;;156.90;;
54641;SDS011;40536;53.194;5.728;2023-11-22T04:23:34;192.98;;;183.38;;
54641;SDS011;40536;53.194;5.728;2023-11-22T04:26:00;218.07;;;207.02;;
54641;SDS011;40536;53.194;5.728;2023-11-22T04:28:26;210.10;;;199.63;;
54641;SDS011;40536;53.194;5.728;2023-11-22T04:30:53;277.00;;;263.15;;
54641;SDS011;40536;53.194;5.728;2023-11-22T04:33:19;358.63;;;341.00;;
54641;SDS011;40536;53.194;5.728;2023-11-22T04:35:45;382.85;;;363.83;;
54641;SDS011;40536;53.194;5.728;2023-11-22T04:38:13;392.90;;;373.98;;
54641;SDS011;40536;53.194;5.728;2023-11-22T04:40:39;445.73;;;422.80;;
54641;SDS011;40536;53.194;5.728;2023-11-22T04:43:04;473.95;;;450.00;;
54641;SDS011;40536;53.194;5.728;2023-11-22T04:45:30;462.67;;;438.15;;
54641;SDS011;40536;53.194;5.728;2023-11-22T04:47:55;416.42;;;395.85;;
54641;SDS011;40536;53.194;5.728;2023-11-22T04:50:22;390.70;;;371.27;;
54641;SDS011;40536;53.194;5.728;2023-11-22T04:52:49;351.90;;;334.90;;
54641;SDS011;40536;53.194;5.728;2023-11-22T04:55:15;315.35;;;299.77;;
54641;SDS011;40536;53.194;5.728;2023-11-22T04:57:41;301.30;;;286.00;;
54641;SDS011;40536;53.194;5.728;2023-11-22T05:00:07;293.13;;;278.08;;
54641;SDS011;40536;53.194;5.728;2023-11-22T05:02:33;249.70;;;237.02;;
54641;SDS011;40536;53.194;5.728;2023-11-22T05:04:59;222.25;;;210.73;;
54641;SDS011;40536;53.194;5.728;2023-11-22T05:07:24;197.00;;;186.60;;
54641;SDS011;40536;53.194;5.728;2023-11-22T05:09:55;212.13;;;200.88;;
54641;SDS011;40536;53.194;5.728;2023-11-22T05:12:20;225.23;;;214.30;;
54641;SDS011;40536;53.194;5.728;2023-11-22T05:14:46;205.10;;;194.18;;
54641;SDS011;40536;53.194;5.728;2023-11-22T05:17:11;202.15;;;191.75;;
54641;SDS011;40536;53.194;5.728;2023-11-22T05:19:37;218.77;;;207.93;;
54641;SDS011;40536;53.194;5.728;2023-11-22T05:22:03;208.75;;;197.93;;
54641;SDS011;40536;53.194;5.728;2023-11-22T05:24:29;231.18;;;219.75;;
54641;SDS011;40536;53.194;5.728;2023-11-22T05:26:55;197.93;;;187.85;;
54641;SDS011;40536;53.194;5.728;2023-11-22T05:29:21;192.93;;;183.27;;
54641;SDS011;40536;53.194;5.728;2023-11-22T05:31:46;215.98;;;205.18;;
54641;SDS011;40536;53.194;5.728;2023-11-22T05:34:12;231.38;;;219.35;;
54641;SDS011;40536;53.194;5.728;2023-11-22T05:36:38;208.30;;;197.45;;
54641;SDS011;40536;53.194;5.728;2023-11-22T05:39:04;215.02;;;203.63;;
54641;SDS011;40536;53.194;5.728;2023-11-22T05:41:29;202.50;;;192.38;;
54641;SDS011;40536;53.194;5.728;2023-11-22T05:43:56;202.05;;;191.32;;
54641;SDS011;40536;53.194;5.728;2023-11-22T05:46:22;216.65;;;205.65;;
54641;SDS011;40536;53.194;5.728;2023-11-22T05:48:53;217.50;;;206.25;;
54641;SDS011;40536;53.194;5.728;2023-11-22T05:51:19;194.88;;;184.63;;
54641;SDS011;40536;53.194;5.728;2023-11-22T05:53:45;195.13;;;185.05;;
54641;SDS011;40536;53.194;5.728;2023-11-22T05:56:11;228.75;;;217.43;;
54641;SDS011;40536;53.194;5.728;2023-11-22T05:58:37;194.10;;;183.45;;
54641;SDS011;40536;53.194;5.728;2023-11-22T06:01:06;199.15;;;188.90;;
54641;SDS011;40536;53.194;5.728;2023-11-22T06:03:32;217.55;;;206.35;;
54641;SDS011;40536;53.194;5.728;2023-11-22T06:05:59;178.07;;;168.52;;
54641;SDS011;40536;53.194;5.728;2023-11-22T06:08:24;212.68;;;201.40;;
54641;SDS011;40536;53.194;5.728;2023-11-22T06:10:52;197.88;;;187.57;;
54641;SDS011;40536;53.194;5.728;2023-11-22T06:13:18;212.93;;;202.15;;
54641;SDS011;40536;53.194;5.728;2023-11-22T06:15:44;203.00;;;192.02;;
54641;SDS011;40536;53.194;5.728;2023-11-22T06:18:10;212.23;;;201.15;;
54641;SDS011;40536;53.194;5.728;2023-11-22T06:20:39;194.68;;;184.43;;
54641;SDS011;40536;53.194;5.728;2023-11-22T06:23:05;196.43;;;185.80;;
54641;SDS011;40536;53.194;5.728;2023-11-22T06:25:30;205.90;;;194.80;;
54641;SDS011;40536;53.194;5.728;2023-11-22T06:27:56;191.02;;;180.50;;
54641;SDS011;40536;53.194;5.728;2023-11-22T06:30:22;181.18;;;171.95;;
54641;SDS011;40536;53.194;5.728;2023-11-22T06:32:49;212.45;;;201.35;;
54641;SDS011;40536;53.194;5.728;2023-11-22T06:35:15;191.27;;;181.07;;
54641;SDS011;40536;53.194;5.728;2023-11-22T06:37:42;200.30;;;189.82;;
54641;SDS011;40536;53.194;5.728;2023-11-22T06:40:09;205.68;;;194.38;;
54641;SDS011;40536;53.194;5.728;2023-11-22T06:42:37;197.95;;;186.98;;
54641;SDS011;40536;53.194;5.728;2023-11-22T06:45:06;183.13;;;173.18;;
54641;SDS011;40536;53.194;5.728;2023-11-22T06:47:38;211.13;;;200.25;;
54641;SDS011;40536;53.194;5.728;2023-11-22T06:50:04;209.43;;;198.30;;
54641;SDS011;40536;53.194;5.728;2023-11-22T06:52:40;208.07;;;196.88;;
54641;SDS011;40536;53.194;5.728;2023-11-22T06:55:07;215.13;;;202.98;;
54641;SDS011;40536;53.194;5.728;2023-11-22T06:57:34;199.50;;;188.70;;
54641;SDS011;40536;53.194;5.728;2023-11-22T07:00:03;192.23;;;181.45;;
54641;SDS011;40536;53.194;5.728;2023-11-22T07:02:33;185.95;;;175.48;;
54641;SDS011;40536;53.194;5.728;2023-11-22T07:05:02;197.45;;;186.55;;
54641;SDS011;40536;53.194;5.728;2023-11-22T07:07:29;185.10;;;174.50;;
54641;SDS011;40536;53.194;5.728;2023-11-22T07:09:55;216.43;;;204.98;;
54641;SDS011;40536;53.194;5.728;2023-11-22T07:12:23;160.70;;;151.63;;
54641;SDS011;40536;53.194;5.728;2023-11-22T07:14:49;168.05;;;158.60;;
54641;SDS011;40536;53.194;5.728;2023-11-22T07:17:15;171.70;;;161.88;;
54641;SDS011;40536;53.194;5.728;2023-11-22T07:19:42;243.65;;;231.40;;
54641;SDS011;40536;53.194;5.728;2023-11-22T07:22:14;314.00;;;297.73;;
54641;SDS011;40536;53.194;5.728;2023-11-22T07:24:47;320.70;;;304.02;;
54641;SDS011;40536;53.194;5.728;2023-11-22T07:27:16;403.83;;;383.48;;
54641;SDS011;40536;53.194;5.728;2023-11-22T07:29:43;391.20;;;370.75;;
54641;SDS011;40536;53.194;5.728;2023-11-22T07:32:09;349.25;;;331.20;;
54641;SDS011;40536;53.194;5.728;2023-11-22T07:34:35;340.05;;;323.13;;
54641;SDS011;40536;53.194;5.728;2023-11-22T07:37:02;301.40;;;285.70;;
54641;SDS011;40536;53.194;5.728;2023-11-22T07:39:28;369.40;;;350.00;;
54641;SDS011;40536;53.194;5.728;2023-11-22T07:41:54;350.95;;;332.73;;
54641;SDS011;40536;53.194;5.728;2023-11-22T07:44:20;348.63;;;330.92;;
54641;SDS011;40536;53.194;5.728;2023-11-22T07:46:46;323.40;;;306.35;;
54641;SDS011;40536;53.194;5.728;2023-11-22T07:49:12;300.88;;;285.15;;
54641;SDS011;40536;53.194;5.728;2023-11-22T07:51:41;314.88;;;298.13;;
54641;SDS011;40536;53.194;5.728;2023-11-22T07:54:06;308.27;;;292.52;;
54641;SDS011;40536;53.194;5.728;2023-11-22T07:56:33;311.35;;;294.63;;
54641;SDS011;40536;53.194;5.728;2023-11-22T07:58:59;341.13;;;323.48;;
54641;SDS011;40536;53.194;5.728;2023-11-22T08:01:25;311.42;;;294.77;;
54641;SDS011;40536;53.194;5.728;2023-11-22T08:03:54;326.15;;;309.05;;
54641;SDS011;40536;53.194;5.728;2023-11-22T08:06:21;333.85;;;316.67;;
54641;SDS011;40536;53.194;5.728;2023-11-22T08:08:47;324.88;;;307.70;;
54641;SDS011;40536;53.194;5.728;2023-11-22T08:11:14;283.40;;;268.05;;
54641;SDS011;40536;53.194;5.728;2023-11-22T08:13:43;254.90;;;241.23;;
54641;SDS011;40536;53.194;5.728;2023-11-22T08:16:10;276.60;;;261.58;;
54641;SDS011;40536;53.194;5.728;2023-11-22T08:18:38;272.13;;;257.85;;
54641;SDS011;40536;53.194;5.728;2023-11-22T08:21:04;264.90;;;250.65;;
54641;SDS011;40536;53.194;5.728;2023-11-22T08:23:30;228.32;;;215.50;;
54641;SDS011;40536;53.194;5.728;2023-11-22T08:25:57;235.55;;;222.68;;
54641;SDS011;40536;53.194;5.728;2023-11-22T08:28:24;237.45;;;224.60;;
54641;SDS011;40536;53.194;5.728;2023-11-22T08:30:51;233.07;;;220.52;;
54641;SDS011;40536;53.194;5.728;2023-11-22T08:33:16;236.90;;;224.48;;
54641;SDS011;40536;53.194;5.728;2023-11-22T08:35:42;207.60;;;195.82;;
54641;SDS011;40536;53.194;5.728;2023-11-22T08:38:08;193.45;;;182.68;;
54641;SDS011;40536;53.194;5.728;2023-11-22T08:40:35;212.23;;;200.25;;
54641;SDS011;40536;53.194;5.728;2023-11-22T08:43:05;197.85;;;186.88;;
54641;SDS011;40536;53.194;5.728;2023-11-22T08:45:31;182.38;;;172.25;;
54641;SDS011;40536;53.194;5.728;2023-11-22T08:47:56;182.40;;;171.98;;
54641;SDS011;40536;53.194;5.728;2023-11-22T08:50:23;203.13;;;192.02;;
54641;SDS011;40536;53.194;5.728;2023-11-22T08:52:49;205.40;;;194.15;;
54641;SDS011;40536;53.194;5.728;2023-11-22T08:55:18;190.90;;;180.23;;
54641;SDS011;40536;53.194;5.728;2023-11-22T08:57:47;206.43;;;194.98;;
54641;SDS011;40536;53.194;5.728;2023-11-22T09:00:17;189.23;;;178.05;;
54641;SDS011;40536;53.194;5.728;2023-11-22T09:02:48;187.55;;;176.93;;
54641;SDS011;40536;53.194;5.728;2023-11-22T09:05:14;200.20;;;188.85;;
54641;SDS011;40536;53.194;5.728;2023-11-22T09:07:42;199.60;;;188.30;;
54641;SDS011;40536;53.194;5.728;2023-11-22T09:10:12;177.20;;;167.18;;
54641;SDS011;40536;53.194;5.728;2023-11-22T09:12:39;195.15;;;184.30;;
54641;SDS011;40536;53.194;5.728;2023-11-22T09:15:09;210.00;;;198.52;;
54641;SDS011;40536;53.194;5.728;2023-11-22T09:17:39;201.27;;;190.38;;
54641;SDS011;40536;53.194;5.728;2023-11-22T09:20:11;230.15;;;217.63;;
54641;SDS011;40536;53.194;5.728;2023-11-22T09:22:46;209.40;;;198.35;;
54641;SDS011;40536;53.194;5.728;2023-11-22T09:25:16;217.77;;;206.02;;
54641;SDS011;40536;53.194;5.728;2023-11-22T09:27:46;202.80;;;191.52;;
54641;SDS011;40536;53.194;5.728;2023-11-22T09:30:14;210.13;;;198.68;;
54641;SDS011;40536;53.194;5.728;2023-11-22T09:32:44;226.57;;;214.63;;
54641;SDS011;40536;53.194;5.728;2023-11-22T09:35:11;211.88;;;199.73;;
54641;SDS011;40536;53.194;5.728;2023-11-22T09:37:39;202.73;;;191.68;;
54641;SDS011;40536;53.194;5.728;2023-11-22T09:40:07;214.55;;;202.98;;
54641;SDS011;40536;53.194;5.728;2023-11-22T09:42:34;209.00;;;197.55;;
54641;SDS011;40536;53.194;5.728;2023-11-22T09:45:00;223.15;;;211.57;;
54641;SDS011;40536;53.194;5.728;2023-11-22T09:47:28;208.35;;;196.55;;
54641;SDS011;40536;53.194;5.728;2023-11-22T09:49:57;207.85;;;196.63;;
54641;SDS011;40536;53.194;5.728;2023-11-22T09:52:25;241.50;;;228.80;;
54641;SDS011;40536;53.194;5.728;2023-11-22T09:54:53;223.13;;;210.75;;
54641;SDS011;40536;53.194;5.728;2023-11-22T09:57:20;228.07;;;216.05;;
54641;SDS011;40536;53.194;5.728;2023-11-22T09:59:48;217.15;;;205.38;;
54641;SDS011;40536;53.194;5.728;2023-11-22T10:02:17;224.63;;;212.60;;
54641;SDS011;40536;53.194;5.728;2023-11-22T10:04:43;257.15;;;243.57;;
54641;SDS011;40536;53.194;5.728;2023-11-22T10:07:10;196.60;;;185.73;;
54641;SDS011;40536;53.194;5.728;2023-11-22T10:09:36;200.80;;;190.00;;
54641;SDS011;40536;53.194;5.728;2023-11-22T10:12:05;202.38;;;191.30;;
54641;SDS011;40536;53.194;5.728;2023-11-22T10:14:30;207.55;;;196.55;;
54641;SDS011;40536;53.194;5.728;2023-11-22T10:16:59;187.02;;;176.52;;
54641;SDS011;40536;53.194;5.728;2023-11-22T10:19:25;174.95;;;165.30;;
54641;SDS011;40536;53.194;5.728;2023-11-22T10:22:08;190.00;;;179.55;;
54641;SDS011;40536;53.194;5.728;2023-11-22T10:24:34;171.32;;;161.40;;
54641;SDS011;40536;53.194;5.728;2023-11-22T10:27:01;174.48;;;164.43;;
54641;SDS011;40536;53.194;5.728;2023-11-22T10:29:27;207.93;;;196.93;;
54641;SDS011;40536;53.194;5.728;2023-11-22T10:31:53;198.18;;;187.23;;
54641;SDS011;40536;53.194;5.728;2023-11-22T10:34:23;195.65;;;185.23;;
54641;SDS011;40536;53.194;5.728;2023-11-22T10:36:50;173.18;;;163.57;;
54641;SDS011;40536;53.194;5.728;2023-11-22T10:39:19;157.18;;;148.77;;
54641;SDS011;40536;53.194;5.728;2023-11-22T10:41:45;147.32;;;139.07;;
54641;SDS011;40536;53.194;5.728;2023-11-22T10:44:11;144.20;;;136.32;;
54641;SDS011;40536;53.194;5.728;2023-11-22T10:46:36;132.32;;;124.78;;
54641;SDS011;40536;53.194;5.728;2023-11-22T10:49:04;121.18;;;113.88;;
54641;SDS011;40536;53.194;5.728;2023-11-22T10:51:31;87.68;;;81.93;;
54641;SDS011;40536;53.194;5.728;2023-11-22T10:53:57;90.35;;;84.65;;
54641;SDS011;40536;53.194;5.728;2023-11-22T10:56:26;83.93;;;78.47;;
54641;SDS011;40536;53.194;5.728;2023-11-22T10:58:56;89.15;;;83.57;;
54641;SDS011;40536;53.194;5.728;2023-11-22T11:01:26;70.05;;;65.28;;
54641;SDS011;40536;53.194;5.728;2023-11-22T11:06:31;75.20;;;70.28;;
54641;SDS011;40536;53.194;5.728;2023-11-22T11:08:59;54.33;;;50.13;;
54641;SDS011;40536;53.194;5.728;2023-11-22T11:11:27;57.53;;;53.20;;
54641;SDS011;40536;53.194;5.728;2023-11-22T11:13:54;47.05;;;43.38;;
54641;SDS011;40536;53.194;5.728;2023-11-22T11:16:20;49.42;;;45.42;;
54641;SDS011;40536;53.194;5.728;2023-11-22T11:18:50;45.75;;;41.95;;
54641;SDS011;40536;53.194;5.728;2023-11-22T11:21:16;46.95;;;43.33;;
54641;SDS011;40536;53.194;5.728;2023-11-22T11:23:41;48.92;;;44.95;;
54641;SDS011;40536;53.194;5.728;2023-11-22T11:26:14;47.28;;;43.28;;
54641;SDS011;40536;53.194;5.728;2023-11-22T11:28:48;45.13;;;41.28;;
54641;SDS011;40536;53.194;5.728;2023-11-22T11:31:15;41.60;;;38.30;;
54641;SDS011;40536;53.194;5.728;2023-11-22T11:36:20;44.15;;;40.65;;
54641;SDS011;40536;53.194;5.728;2023-11-22T11:38:51;43.05;;;39.63;;
54641;SDS011;40536;53.194;5.728;2023-11-22T11:41:17;38.60;;;35.45;;
54641;SDS011;40536;53.194;5.728;2023-11-22T11:43:44;35.85;;;32.40;;
54641;SDS011;40536;53.194;5.728;2023-11-22T11:46:14;39.25;;;35.85;;
54641;SDS011;40536;53.194;5.728;2023-11-22T11:48:44;39.28;;;36.13;;
54641;SDS011;40536;53.194;5.728;2023-11-22T11:51:14;34.85;;;31.73;;
54641;SDS011;40536;53.194;5.728;2023-11-22T11:53:40;36.75;;;33.65;;
54641;SDS011;40536;53.194;5.728;2023-11-22T11:56:06;28.23;;;25.50;;
54641;SDS011;40536;53.194;5.728;2023-11-22T11:58:33;27.27;;;24.63;;
54641;SDS011;40536;53.194;5.728;2023-11-22T12:00:59;47.22;;;43.30;;
54641;SDS011;40536;53.194;5.728;2023-11-22T12:03:25;26.85;;;23.75;;
54641;SDS011;40536;53.194;5.728;2023-11-22T12:05:50;30.05;;;27.35;;
54641;SDS011;40536;53.194;5.728;2023-11-22T12:08:16;26.60;;;23.95;;
54641;SDS011;40536;53.194;5.728;2023-11-22T12:10:43;27.08;;;24.25;;
54641;SDS011;40536;53.194;5.728;2023-11-22T12:13:21;25.88;;;23.40;;
54641;SDS011;40536;53.194;5.728;2023-11-22T12:15:47;26.88;;;24.40;;
54641;SDS011;40536;53.194;5.728;2023-11-22T12:18:16;28.73;;;25.83;;
54641;SDS011;40536;53.194;5.728;2023-11-22T12:20:42;26.90;;;24.30;;
54641;SDS011;40536;53.194;5.728;2023-11-22T12:23:22;27.73;;;24.88;;
54641;SDS011;40536;53.194;5.728;2023-11-22T12:25:59;32.03;;;29.02;;
54641;SDS011;40536;53.194;5.728;2023-11-22T12:28:27;32.15;;;29.08;;
54641;SDS011;40536;53.194;5.728;2023-11-22T12:30:54;36.00;;;33.03;;
54641;SDS011;40536;53.194;5.728;2023-11-22T12:33:19;37.92;;;34.42;;
54641;SDS011;40536;53.194;5.728;2023-11-22T12:35:46;38.83;;;35.80;;
54641;SDS011;40536;53.194;5.728;2023-11-22T12:38:14;38.22;;;34.92;;
54641;SDS011;40536;53.194;5.728;2023-11-22T12:40:46;38.15;;;35.03;;
54641;SDS011;40536;53.194;5.728;2023-11-22T12:43:12;45.10;;;41.78;;
54641;SDS011;40536;53.194;5.728;2023-11-22T12:45:39;39.92;;;36.72;;
54641;SDS011;40536;53.194;5.728;2023-11-22T12:48:21;37.50;;;34.20;;
54641;SDS011;40536;53.194;5.728;2023-11-22T12:50:51;71.55;;;67.03;;
54641;SDS011;40536;53.194;5.728;2023-11-22T12:53:19;38.95;;;35.88;;
54641;SDS011;40536;53.194;5.728;2023-11-22T12:55:50;35.92;;;32.97;;
54641;SDS011;40536;53.194;5.728;2023-11-22T12:58:20;42.25;;;38.95;;
54641;SDS011;40536;53.194;5.728;2023-11-22T13:00:48;40.80;;;37.55;;
54641;SDS011;40536;53.194;5.728;2023-11-22T13:03:15;42.08;;;38.97;;
54641;SDS011;40536;53.194;5.728;2023-11-22T13:05:41;40.88;;;37.70;;
54641;SDS011;40536;53.194;5.728;2023-11-22T13:08:10;42.33;;;38.92;;
54641;SDS011;40536;53.194;5.728;2023-11-22T13:10:38;39.53;;;36.10;;
54641;SDS011;40536;53.194;5.728;2023-11-22T13:13:05;52.65;;;48.72;;
54641;SDS011;40536;53.194;5.728;2023-11-22T13:15:33;49.40;;;45.53;;
54641;SDS011;40536;53.194;5.728;2023-11-22T13:17:59;47.60;;;43.95;;
54641;SDS011;40536;53.194;5.728;2023-11-22T13:20:25;57.83;;;53.65;;
54641;SDS011;40536;53.194;5.728;2023-11-22T13:22:54;58.63;;;54.25;;
54641;SDS011;40536;53.194;5.728;2023-11-22T13:25:21;58.17;;;53.80;;
54641;SDS011;40536;53.194;5.728;2023-11-22T13:27:49;78.68;;;73.75;;
54641;SDS011;40536;53.194;5.728;2023-11-22T13:30:17;95.75;;;90.22;;
54641;SDS011;40536;53.194;5.728;2023-11-22T13:32:45;88.45;;;82.80;;
54641;SDS011;40536;53.194;5.728;2023-11-22T13:35:12;97.40;;;91.30;;
54641;SDS011;40536;53.194;5.728;2023-11-22T13:37:42;124.43;;;117.10;;
54641;SDS011;40536;53.194;5.728;2023-11-22T13:40:10;113.07;;;106.50;;
54641;SDS011;40536;53.194;5.728;2023-11-22T13:42:40;168.48;;;158.35;;
54641;SDS011;40536;53.194;5.728;2023-11-22T13:45:12;131.43;;;123.97;;
54641;SDS011;40536;53.194;5.728;2023-11-22T13:50:09;141.50;;;133.52;;
54641;SDS011;40536;53.194;5.728;2023-11-22T13:52:35;142.93;;;135.07;;
54641;SDS011;40536;53.194;5.728;2023-11-22T13:55:01;141.82;;;133.65;;
54641;SDS011;40536;53.194;5.728;2023-11-22T13:57:30;152.48;;;144.27;;
54641;SDS011;40536;53.194;5.728;2023-11-22T13:59:57;171.75;;;162.65;;
54641;SDS011;40536;53.194;5.728;2023-11-22T14:02:23;175.82;;;166.32;;
54641;SDS011;40536;53.194;5.728;2023-11-22T14:04:49;188.02;;;178.10;;
54641;SDS011;40536;53.194;5.728;2023-11-22T14:07:15;172.93;;;163.93;;
54641;SDS011;40536;53.194;5.728;2023-11-22T14:09:40;149.18;;;141.00;;
54641;SDS011;40536;53.194;5.728;2023-11-22T14:12:06;160.23;;;151.40;;
54641;SDS011;40536;53.194;5.728;2023-11-22T14:14:32;126.20;;;118.90;;
54641;SDS011;40536;53.194;5.728;2023-11-22T14:16:58;153.27;;;144.73;;
54641;SDS011;40536;53.194;5.728;2023-11-22T14:19:23;152.57;;;144.32;;
54641;SDS011;40536;53.194;5.728;2023-11-22T14:21:49;152.18;;;143.82;;
54641;SDS011;40536;53.194;5.728;2023-11-22T14:24:14;166.68;;;157.95;;
54641;SDS011;40536;53.194;5.728;2023-11-22T14:26:40;160.38;;;151.65;;
54641;SDS011;40536;53.194;5.728;2023-11-22T14:29:06;137.02;;;129.23;;
54641;SDS011;40536;53.194;5.728;2023-11-22T14:31:32;178.35;;;168.93;;
54641;SDS011;40536;53.194;5.728;2023-11-22T14:33:58;188.38;;;178.90;;
54641;SDS011;40536;53.194;5.728;2023-11-22T14:36:24;164.05;;;155.23;;
54641;SDS011;40536;53.194;5.728;2023-11-22T14:38:51;170.27;;;160.88;;
54641;SDS011;40536;53.194;5.728;2023-11-22T14:41:21;192.15;;;182.18;;
54641;SDS011;40536;53.194;5.728;2023-11-22T14:43:47;198.35;;;188.18;;
54641;SDS011;40536;53.194;5.728;2023-11-22T14:46:13;150.93;;;142.55;;
54641;SDS011;40536;53.194;5.728;2023-11-22T14:48:42;193.45;;;182.93;;
54641;SDS011;40536;53.194;5.728;2023-11-22T14:51:07;197.02;;;186.25;;
54641;SDS011;40536;53.194;5.728;2023-11-22T14:53:34;182.45;;;173.02;;
54641;SDS011;40536;53.194;5.728;2023-11-22T14:56:00;211.15;;;200.38;;
54641;SDS011;40536;53.194;5.728;2023-11-22T14:58:26;217.35;;;204.45;;
54641;SDS011;40536;53.194;5.728;2023-11-22T15:00:52;153.02;;;144.73;;
54641;SDS011;40536;53.194;5.728;2023-11-22T15:03:18;199.07;;;188.77;;
54641;SDS011;40536;53.194;5.728;2023-11-22T15:05:45;160.70;;;151.80;;
54641;SDS011;40536;53.194;5.728;2023-11-22T15:08:10;210.88;;;199.98;;
54641;SDS011;40536;53.194;5.728;2023-11-22T15:10:36;186.82;;;177.18;;
54641;SDS011;40536;53.194;5.728;2023-11-22T15:13:02;177.70;;;168.48;;
54641;SDS011;40536;53.194;5.728;2023-11-22T15:15:28;181.10;;;171.82;;
54641;SDS011;40536;53.194;5.728;2023-11-22T15:17:54;214.05;;;203.55;;
54641;SDS011;40536;53.194;5.728;2023-11-22T15:20:20;200.10;;;189.93;;
54641;SDS011;40536;53.194;5.728;2023-11-22T15:22:46;170.23;;;160.90;;
54641;SDS011;40536;53.194;5.728;2023-11-22T15:25:12;171.32;;;162.27;;
54641;SDS011;40536;53.194;5.728;2023-11-22T15:27:40;198.25;;;187.50;;
54641;SDS011;40536;53.194;5.728;2023-11-22T15:30:06;214.30;;;202.90;;
54641;SDS011;40536;53.194;5.728;2023-11-22T15:32:34;195.05;;;185.23;;
54641;SDS011;40536;53.194;5.728;2023-11-22T15:35:00;205.88;;;195.45;;
54641;SDS011;40536;53.194;5.728;2023-11-22T15:37:26;225.82;;;214.30;;